首页
METAR-TAF:

METAR-TAF

机场 :

南安普敦機場

南安普敦, 英格兰

纬度: 50-54N, 经度: 001-24W, 海拔: 9米

当前天气观测

该预报发布于4小时和25分钟前的13:50 UTC
风速8节,风向北转西北,在西东北之间变化
温度 16°C
湿度 48%
气压 1003 hPa
能见度10公里或以上
散云层高于4400英尺

METAR: EGHI 041350Z 33008KT 270V050 9999 SCT044 16/05 Q1003

时间: 19:15 (18:15 UTC)

预报

该预报发布于4小时和19分钟前的13:56 UTC
预报有效从04日的 15点(UTC)到 04日的 19点(UTC)
风速9节,风向西北
能见度10公里或以上
散云层高于3000英尺

TAF: EGHI 041356Z 0415/0419 32009KT 9999 SCT030

超过4000个机场的气象观测和天气预报(METAR&TAF报告)。

可查询的气象台以黄色和红色小点在地图上表示。

将鼠标移到小点上方,可查看气象台名称。

然后点击查看天气观测和预报。

如需切换地图:点击带黑十字的绿色按钮放大地图;点击带横线的绿色按钮缩小地图;或者点击绿色箭头查看邻近地区的地图。


METAR-TAF: